createdAt,value
2023-03-02T00:00:48.582Z,101460.50
2023-03-02T00:03:33.845Z,101447.94
2023-03-02T00:06:32.033Z,101459.06
2023-03-02T00:09:14.655Z,101449.66
2023-03-02T00:11:52.246Z,101447.28
2023-03-02T00:14:30.168Z,101440.53
2023-03-02T00:17:06.073Z,101447.00
2023-03-02T00:19:47.464Z,101452.31
2023-03-02T00:22:19.397Z,101449.13
2023-03-02T00:24:56.359Z,101449.88
2023-03-02T00:27:27.883Z,101441.38
2023-03-02T00:30:03.643Z,101442.72
2023-03-02T00:32:37.361Z,101445.94
2023-03-02T00:35:15.334Z,101445.72
2023-03-02T00:37:51.634Z,101444.66
2023-03-02T00:40:33.246Z,101449.13
2023-03-02T00:43:18.248Z,101447.78
2023-03-02T00:45:53.888Z,101445.22
2023-03-02T00:48:29.083Z,101449.19
2023-03-02T00:51:09.665Z,101444.72
2023-03-02T00:54:03.647Z,101441.38
2023-03-02T00:56:38.765Z,101436.44
2023-03-02T01:02:14.370Z,101446.91
2023-03-02T01:04:50.133Z,101452.72
2023-03-02T01:07:21.014Z,101445.38
2023-03-02T01:09:54.326Z,101446.03
2023-03-02T01:12:24.772Z,101449.56
2023-03-02T01:14:56.236Z,101446.41
2023-03-02T01:17:26.463Z,101445.44
2023-03-02T01:20:06.162Z,101439.84
2023-03-02T01:22:33.523Z,101444.72
2023-03-02T01:25:00.722Z,101443.50
2023-03-02T01:27:34.195Z,101439.66
2023-03-02T01:30:15.566Z,101437.47
2023-03-02T01:32:49.913Z,101434.53
2023-03-02T01:35:23.214Z,101442.25
2023-03-02T01:37:52.980Z,101438.13
2023-03-02T01:40:22.675Z,101429.44
2023-03-02T01:42:58.747Z,101433.03
2023-03-02T01:45:47.897Z,101427.84
2023-03-02T01:48:31.342Z,101423.44
2023-03-02T01:51:02.976Z,101421.78
2023-03-02T01:53:44.795Z,101418.13
2023-03-02T01:56:25.973Z,101421.72
2023-03-02T02:02:32.515Z,101404.78
2023-03-02T02:05:05.018Z,101403.13
2023-03-02T02:07:41.866Z,101407.88
2023-03-02T02:10:13.579Z,101403.47
2023-03-02T02:12:49.633Z,101400.81
2023-03-02T02:15:30.133Z,101403.47
2023-03-02T02:18:00.976Z,101408.66
2023-03-02T02:20:50.023Z,101407.72
2023-03-02T02:24:02.140Z,101401.94
2023-03-02T02:26:41.451Z,101392.44
2023-03-02T02:29:19.160Z,101393.53
2023-03-02T02:32:00.618Z,101395.28
2023-03-02T02:34:52.551Z,101390.16
2023-03-02T02:37:33.334Z,101395.34
2023-03-02T02:40:13.886Z,101391.09
2023-03-02T02:42:51.219Z,101394.09
2023-03-02T02:45:35.186Z,101393.69
2023-03-02T02:48:05.291Z,101388.69
2023-03-02T02:50:38.762Z,101389.44
2023-03-02T02:53:23.968Z,101386.44
2023-03-02T02:56:01.102Z,101385.00
2023-03-02T02:58:56.090Z,101387.53
2023-03-02T03:01:29.492Z,101384.31
2023-03-02T03:04:05.110Z,101393.78
2023-03-02T03:06:47.638Z,101388.78
2023-03-02T03:09:22.286Z,101390.44
2023-03-02T03:11:55.698Z,101400.47
2023-03-02T03:14:39.691Z,101393.72
2023-03-02T03:17:14.090Z,101398.50
2023-03-02T03:19:51.586Z,101383.00
2023-03-02T03:22:19.444Z,101385.38
2023-03-02T03:24:49.012Z,101394.25
2023-03-02T03:27:26.411Z,101389.44
2023-03-02T03:30:08.819Z,101394.22
2023-03-02T03:32:43.016Z,101391.44
2023-03-02T03:35:12.016Z,101385.59
2023-03-02T03:37:48.988Z,101391.59
2023-03-02T03:40:19.157Z,101387.78
2023-03-02T03:42:57.082Z,101394.25
2023-03-02T03:45:30.557Z,101393.16
2023-03-02T03:47:58.553Z,101385.59
2023-03-02T03:50:28.359Z,101389.13
2023-03-02T03:52:59.171Z,101396.06
2023-03-02T03:55:34.397Z,101394.44
2023-03-02T03:58:04.333Z,101404.34
2023-03-02T04:00:34.580Z,101406.50
2023-03-02T04:03:07.307Z,101406.50
2023-03-02T04:05:46.880Z,101405.81
2023-03-02T04:08:19.264Z,101410.91
2023-03-02T04:10:55.680Z,101406.56
2023-03-02T04:13:28.588Z,101404.78
2023-03-02T04:16:06.887Z,101399.00
2023-03-02T04:18:40.299Z,101405.00
2023-03-02T04:21:14.721Z,101405.19
2023-03-02T04:23:57.538Z,101400.94
2023-03-02T04:26:28.455Z,101397.53
2023-03-02T04:29:01.916Z,101405.34
2023-03-02T04:31:39.910Z,101404.34
2023-03-02T04:34:14.098Z,101395.59
2023-03-02T04:36:47.787Z,101404.41
2023-03-02T04:39:22.755Z,101398.34
2023-03-02T04:42:04.345Z,101404.63
2023-03-02T04:44:31.676Z,101406.34
2023-03-02T04:46:58.932Z,101410.53
2023-03-02T04:49:26.632Z,101405.25
2023-03-02T04:51:54.038Z,101411.69
2023-03-02T04:54:27.991Z,101412.38
2023-03-02T04:56:58.368Z,101414.22
2023-03-02T04:59:30.655Z,101408.03
2023-03-02T05:02:08.671Z,101422.41
2023-03-02T05:04:44.329Z,101418.75
2023-03-02T05:07:22.948Z,101416.88
2023-03-02T05:09:52.156Z,101420.28
2023-03-02T05:12:27.983Z,101418.53
2023-03-02T05:14:56.156Z,101414.88
2023-03-02T05:17:38.652Z,101420.06
2023-03-02T05:20:19.846Z,101420.72
2023-03-02T05:22:50.383Z,101424.59
2023-03-02T05:25:27.569Z,101418.06
2023-03-02T05:28:15.311Z,101430.09
2023-03-02T05:30:46.230Z,101434.66
2023-03-02T05:33:14.338Z,101425.81
2023-03-02T05:35:48.117Z,101431.00
2023-03-02T05:38:24.620Z,101441.06
2023-03-02T05:40:57.990Z,101438.41
2023-03-02T05:43:25.352Z,101438.59
2023-03-02T05:46:08.280Z,101444.25
2023-03-02T05:48:44.135Z,101449.59
2023-03-02T05:51:11.494Z,101444.59
2023-03-02T05:53:39.238Z,101445.47
2023-03-02T05:56:09.896Z,101451.28
2023-03-02T05:58:42.828Z,101456.59
2023-03-02T06:01:28.285Z,101454.75
2023-03-02T06:03:59.142Z,101454.81
2023-03-02T06:06:31.733Z,101456.66
2023-03-02T06:09:03.119Z,101460.88
2023-03-02T06:11:48.955Z,101466.75
2023-03-02T06:14:16.212Z,101467.47
2023-03-02T06:16:46.267Z,101468.44
2023-03-02T06:19:13.561Z,101479.53
2023-03-02T06:21:40.696Z,101477.81
2023-03-02T06:24:10.818Z,101489.28
2023-03-02T06:26:43.148Z,101486.56
2023-03-02T06:29:13.824Z,101491.88
2023-03-02T06:31:41.254Z,101490.69
2023-03-02T06:34:14.389Z,101488.84
2023-03-02T06:36:50.323Z,101489.38
2023-03-02T06:39:18.020Z,101490.44
2023-03-02T06:41:48.709Z,101500.69
2023-03-02T06:44:17.836Z,101496.19
2023-03-02T06:46:45.579Z,101494.03
2023-03-02T06:49:15.560Z,101506.00
2023-03-02T06:51:50.092Z,101499.50
2023-03-02T06:54:27.772Z,101503.75
2023-03-02T06:56:59.980Z,101507.84
2023-03-02T06:59:27.229Z,101506.66
2023-03-02T07:04:40.028Z,101507.72
2023-03-02T07:07:08.275Z,101515.59
2023-03-02T07:09:35.853Z,101511.56
2023-03-02T07:12:06.042Z,101518.44
2023-03-02T07:14:39.673Z,101525.44
2023-03-02T07:17:16.195Z,101521.91
2023-03-02T07:19:51.203Z,101527.38
2023-03-02T07:22:26.472Z,101529.75
2023-03-02T07:24:59.840Z,101538.97
2023-03-02T07:27:27.306Z,101545.66
2023-03-02T07:29:57.517Z,101545.97
2023-03-02T07:32:27.774Z,101550.44
2023-03-02T07:34:55.168Z,101551.94
2023-03-02T07:37:26.261Z,101557.22
2023-03-02T07:40:00.697Z,101556.81
2023-03-02T07:42:38.022Z,101557.47
2023-03-02T07:45:32.075Z,101566.56
2023-03-02T07:48:17.704Z,101564.69
2023-03-02T07:50:49.377Z,101569.19
2023-03-02T07:53:16.620Z,101567.59
2023-03-02T07:55:43.803Z,101564.00
2023-03-02T07:58:13.459Z,101568.81
2023-03-02T08:00:47.987Z,101570.00
2023-03-02T08:03:16.316Z,101576.28
2023-03-02T08:05:53.791Z,101565.78
2023-03-02T08:08:30.417Z,101569.63
2023-03-02T08:11:12.760Z,101578.66
2023-03-02T08:13:47.969Z,101581.38
2023-03-02T08:16:18.458Z,101583.47
2023-03-02T08:18:48.753Z,101584.97
2023-03-02T08:21:18.985Z,101588.00
2023-03-02T08:23:50.611Z,101586.88
2023-03-02T08:29:16.004Z,101592.72
2023-03-02T08:31:48.710Z,101584.59
2023-03-02T08:34:20.593Z,101588.34
2023-03-02T08:36:48.054Z,101590.00
2023-03-02T08:39:15.674Z,101582.88
2023-03-02T08:41:42.912Z,101587.16
2023-03-02T08:44:10.163Z,101587.50
2023-03-02T08:46:37.409Z,101595.13
2023-03-02T08:49:09.874Z,101599.00
2023-03-02T08:51:39.458Z,101607.72
2023-03-02T08:54:06.667Z,101595.00
2023-03-02T08:56:44.783Z,101603.66
2023-03-02T08:59:13.693Z,101599.91
2023-03-02T09:01:49.389Z,101606.34
2023-03-02T09:04:22.835Z,101605.84
2023-03-02T09:06:50.310Z,101608.88
2023-03-02T09:09:23.232Z,101612.03
2023-03-02T09:11:53.534Z,101611.81
2023-03-02T09:14:23.942Z,101607.16
2023-03-02T09:16:55.918Z,101614.44
2023-03-02T09:19:25.444Z,101617.94
2023-03-02T09:22:02.851Z,101616.81
2023-03-02T09:24:32.644Z,101612.34
2023-03-02T09:26:59.874Z,101623.28
2023-03-02T09:29:27.023Z,101622.00
2023-03-02T09:31:56.908Z,101620.38
2023-03-02T09:34:24.218Z,101614.38
2023-03-02T09:36:51.418Z,101613.47
2023-03-02T09:39:21.596Z,101620.63
2023-03-02T09:42:14.054Z,101617.34
2023-03-02T09:45:00.175Z,101614.81
2023-03-02T09:47:43.947Z,101614.34
2023-03-02T09:50:24.610Z,101602.75
2023-03-02T09:53:14.544Z,101607.41
2023-03-02T09:55:42.416Z,101609.56
2023-03-02T09:58:17.829Z,101610.84
2023-03-02T10:00:46.894Z,101615.81
2023-03-02T10:03:23.542Z,101615.81
2023-03-02T10:05:56.663Z,101606.47
2023-03-02T10:08:44.359Z,101614.53
2023-03-02T10:11:27.536Z,101609.38
2023-03-02T10:14:15.211Z,101605.41
2023-03-02T10:17:36.760Z,101608.34
2023-03-02T10:20:16.498Z,101611.72
2023-03-02T10:25:59.000Z,101612.97
2023-03-02T10:28:56.163Z,101610.25
2023-03-02T10:31:31.801Z,101611.22
2023-03-02T10:34:01.797Z,101606.16
2023-03-02T10:36:48.845Z,101600.06
2023-03-02T10:39:20.594Z,101609.94
2023-03-02T10:41:58.570Z,101606.94
2023-03-02T10:44:33.088Z,101608.97
2023-03-02T10:47:00.431Z,101612.69
2023-03-02T10:49:30.600Z,101603.38
2023-03-02T10:52:24.382Z,101605.81
2023-03-02T10:55:20.206Z,101606.16
2023-03-02T10:58:31.127Z,101612.81
2023-03-02T11:01:26.787Z,101614.78
2023-03-02T11:04:18.943Z,101613.72
2023-03-02T11:06:46.180Z,101614.22
2023-03-02T11:09:17.435Z,101614.59
2023-03-02T11:11:57.358Z,101619.84
2023-03-02T11:14:34.772Z,101619.06
2023-03-02T11:17:38.982Z,101616.22
2023-03-02T11:20:29.902Z,101610.00
2023-03-02T11:26:37.227Z,101613.09
2023-03-02T11:29:33.786Z,101603.13
2023-03-02T11:32:34.630Z,101603.16
2023-03-02T11:35:39.149Z,101599.81
2023-03-02T11:38:32.523Z,101601.06
2023-03-02T11:41:37.189Z,101604.50
2023-03-02T11:44:19.715Z,101605.63
2023-03-02T11:47:00.152Z,101594.28
2023-03-02T11:49:47.234Z,101603.13
2023-03-02T11:52:53.065Z,101597.47
2023-03-02T11:58:41.400Z,101593.19
2023-03-02T12:01:32.438Z,101595.50
2023-03-02T12:04:27.129Z,101590.25
2023-03-02T12:07:00.872Z,101590.25
2023-03-02T12:13:26.336Z,101591.13
2023-03-02T12:16:38.083Z,101584.75
2023-03-02T12:19:29.294Z,101575.56
2023-03-02T12:22:20.777Z,101581.16
2023-03-02T12:25:23.821Z,101580.38
2023-03-02T12:28:31.048Z,101571.44
2023-03-02T12:31:23.338Z,101563.78
2023-03-02T12:34:25.641Z,101558.25
2023-03-02T12:37:29.788Z,101546.34
2023-03-02T12:40:41.974Z,101538.94
2023-03-02T12:43:50.513Z,101540.81
2023-03-02T12:46:45.236Z,101529.19
2023-03-02T12:49:42.008Z,101528.69
2023-03-02T12:52:44.370Z,101516.03
2023-03-02T12:55:21.185Z,101514.53
2023-03-02T12:57:56.485Z,101510.00
2023-03-02T13:00:45.451Z,101508.25
2023-03-02T13:03:22.975Z,101500.66
2023-03-02T13:05:50.216Z,101498.22
2023-03-02T13:09:02.459Z,101493.59
2023-03-02T13:11:44.333Z,101479.94
2023-03-02T13:14:41.685Z,101482.88
2023-03-02T13:17:34.586Z,101469.38
2023-03-02T13:20:18.512Z,101467.72
2023-03-02T13:22:59.322Z,101466.25
2023-03-02T13:25:32.960Z,101454.94
2023-03-02T13:28:30.545Z,101463.72
2023-03-02T13:31:33.628Z,101456.03
2023-03-02T13:34:31.113Z,101460.41
2023-03-02T13:37:15.882Z,101457.78
2023-03-02T13:40:28.373Z,101462.81
2023-03-02T13:43:01.911Z,101459.53
2023-03-02T13:45:39.088Z,101448.00
2023-03-02T13:48:16.439Z,101447.25
2023-03-02T13:51:19.345Z,101448.13
2023-03-02T13:53:59.237Z,101445.50
2023-03-02T13:56:47.248Z,101440.22
2023-03-02T13:59:38.019Z,101433.19
2023-03-02T14:02:35.066Z,101423.50
2023-03-02T14:05:29.400Z,101428.81
2023-03-02T14:08:07.764Z,101423.53
2023-03-02T14:10:58.619Z,101412.00
2023-03-02T14:13:58.000Z,101417.41
2023-03-02T14:16:45.421Z,101411.09
2023-03-02T14:19:23.951Z,101401.47
2023-03-02T14:22:08.162Z,101401.59
2023-03-02T14:24:41.877Z,101407.75
2023-03-02T14:27:36.846Z,101410.38
2023-03-02T14:30:19.174Z,101407.72
2023-03-02T14:35:48.407Z,101405.13
2023-03-02T14:38:21.022Z,101414.72
2023-03-02T14:40:59.807Z,101405.22
2023-03-02T14:43:38.176Z,101402.41
2023-03-02T14:46:16.375Z,101401.56
2023-03-02T14:48:56.864Z,101410.22
2023-03-02T14:51:30.459Z,101406.69
2023-03-02T14:54:12.804Z,101396.16
2023-03-02T14:56:49.288Z,101408.28
2023-03-02T14:59:24.915Z,101388.78
2023-03-02T15:02:25.728Z,101404.59
2023-03-02T15:05:05.202Z,101391.31
2023-03-02T15:10:56.500Z,101399.84
2023-03-02T15:13:34.329Z,101398.41
2023-03-02T15:16:35.273Z,101399.16
2023-03-02T15:19:13.804Z,101402.31
2023-03-02T15:22:11.462Z,101404.63
2023-03-02T15:24:59.965Z,101402.19
2023-03-02T15:27:30.496Z,101406.06
2023-03-02T15:30:13.098Z,101413.97
2023-03-02T15:32:49.064Z,101417.88
2023-03-02T15:38:35.441Z,101417.03
2023-03-02T15:41:12.500Z,101412.13
2023-03-02T15:43:56.143Z,101412.13
2023-03-02T15:46:29.495Z,101415.78
2023-03-02T15:49:06.603Z,101414.38
2023-03-02T15:51:49.365Z,101422.88
2023-03-02T15:54:32.495Z,101417.28
2023-03-02T15:57:02.759Z,101407.66
2023-03-02T15:59:38.989Z,101416.81
2023-03-02T16:02:13.691Z,101423.16
2023-03-02T16:05:00.709Z,101424.78
2023-03-02T16:07:34.676Z,101419.78
2023-03-02T16:10:13.095Z,101422.88
2023-03-02T16:12:45.831Z,101422.75
2023-03-02T16:15:16.327Z,101419.22
2023-03-02T16:17:49.362Z,101422.34
2023-03-02T16:20:17.763Z,101434.69
2023-03-02T16:22:58.413Z,101435.00
2023-03-02T16:25:46.537Z,101434.94
2023-03-02T16:28:34.045Z,101433.94
2023-03-02T16:31:23.987Z,101436.84
2023-03-02T16:33:58.618Z,101440.50
2023-03-02T16:36:42.484Z,101431.75
2023-03-02T16:39:18.274Z,101444.88
2023-03-02T16:41:53.727Z,101445.00
2023-03-02T16:44:32.254Z,101455.75
2023-03-02T16:46:59.454Z,101453.72
2023-03-02T16:49:29.288Z,101450.63
2023-03-02T16:52:03.703Z,101452.97
2023-03-02T16:54:37.203Z,101453.75
2023-03-02T16:57:08.641Z,101458.63
2023-03-02T16:59:41.489Z,101458.69
2023-03-02T17:02:12.284Z,101456.97
2023-03-02T17:04:42.524Z,101468.53
2023-03-02T17:07:12.015Z,101473.38
2023-03-02T17:09:45.179Z,101478.78
2023-03-02T17:12:16.150Z,101473.56
2023-03-02T17:14:50.049Z,101476.06
2023-03-02T17:17:23.485Z,101474.47
2023-03-02T17:19:52.579Z,101476.53
2023-03-02T17:22:28.238Z,101482.72
2023-03-02T17:27:41.118Z,101492.28
2023-03-02T17:30:24.974Z,101490.56
2023-03-02T17:32:57.598Z,101492.41
2023-03-02T17:35:29.877Z,101496.69
2023-03-02T17:37:59.571Z,101505.44
2023-03-02T17:40:49.558Z,101501.13
2023-03-02T17:43:25.278Z,101513.16
2023-03-02T17:46:14.384Z,101515.38
2023-03-02T17:48:47.754Z,101514.44
2023-03-02T17:51:28.500Z,101518.78
2023-03-02T17:54:07.367Z,101515.03
2023-03-02T17:56:40.300Z,101526.50
2023-03-02T17:59:15.976Z,101528.19
2023-03-02T18:01:55.091Z,101525.34
2023-03-02T18:04:31.605Z,101531.34
2023-03-02T18:07:08.389Z,101538.06
2023-03-02T18:09:41.420Z,101538.09
2023-03-02T18:12:11.539Z,101536.41
2023-03-02T18:14:41.743Z,101539.47
2023-03-02T18:17:47.275Z,101540.69
2023-03-02T18:20:22.046Z,101543.63
2023-03-02T18:22:58.411Z,101549.53
2023-03-02T18:25:45.754Z,101549.97
2023-03-02T18:28:18.860Z,101550.66
2023-03-02T18:31:03.340Z,101555.03
2023-03-02T18:33:33.792Z,101554.75
2023-03-02T18:36:06.678Z,101558.38
2023-03-02T18:41:47.685Z,101572.69
2023-03-02T18:44:37.032Z,101564.97
2023-03-02T18:47:27.645Z,101577.03
2023-03-02T18:53:01.793Z,101575.44
2023-03-02T18:58:51.441Z,101585.50
2023-03-02T19:05:02.891Z,101589.97
2023-03-02T19:08:19.043Z,101599.75
2023-03-02T19:11:30.882Z,101600.88
2023-03-02T19:14:39.176Z,101603.94
2023-03-02T19:17:18.084Z,101604.25
2023-03-02T19:22:36.181Z,101598.41
2023-03-02T19:25:05.670Z,101606.78
2023-03-02T19:27:37.201Z,101615.59
2023-03-02T19:30:18.238Z,101611.00
2023-03-02T19:33:06.445Z,101612.41
2023-03-02T19:35:38.118Z,101613.78
2023-03-02T19:38:09.830Z,101613.91
2023-03-02T19:40:40.601Z,101611.69
2023-03-02T19:43:18.007Z,101615.22
2023-03-02T19:45:52.728Z,101623.94
2023-03-02T19:48:29.406Z,101620.22
2023-03-02T19:51:09.839Z,101626.41
2023-03-02T19:53:59.138Z,101623.63
2023-03-02T19:56:51.065Z,101622.25
2023-03-02T19:59:37.318Z,101621.44
2023-03-02T20:02:20.435Z,101625.31
2023-03-02T20:04:54.079Z,101622.28
2023-03-02T20:07:40.340Z,101619.38
2023-03-02T20:10:31.186Z,101628.84
2023-03-02T20:13:06.520Z,101628.94
2023-03-02T20:15:59.174Z,101629.78
2023-03-02T20:24:38.770Z,101638.53
2023-03-02T20:27:15.846Z,101636.94
2023-03-02T20:29:59.093Z,101638.66
2023-03-02T20:32:31.089Z,101649.28
2023-03-02T20:35:10.383Z,101649.00
2023-03-02T20:37:58.271Z,101652.97
2023-03-02T20:40:55.055Z,101650.84
2023-03-02T20:43:54.667Z,101648.34
2023-03-02T20:46:42.692Z,101653.19
2023-03-02T20:49:29.499Z,101644.63
2023-03-02T20:52:03.125Z,101653.44
2023-03-02T20:55:00.991Z,101664.38
2023-03-02T21:01:04.847Z,101660.78
2023-03-02T21:04:00.274Z,101672.13
2023-03-02T21:06:41.085Z,101677.81
2023-03-02T21:09:16.259Z,101673.66
2023-03-02T21:12:12.103Z,101675.63
2023-03-02T21:14:50.958Z,101679.09
2023-03-02T21:17:40.350Z,101675.63
2023-03-02T21:23:17.226Z,101680.88
2023-03-02T21:29:23.435Z,101688.09
2023-03-02T21:32:24.680Z,101689.09
2023-03-02T21:35:08.611Z,101695.28
2023-03-02T21:37:44.940Z,101697.66
2023-03-02T21:40:56.333Z,101691.22
2023-03-02T21:44:11.640Z,101694.28
2023-03-02T21:46:52.121Z,101681.13
2023-03-02T21:49:50.474Z,101685.44
2023-03-02T21:52:34.705Z,101684.84
2023-03-02T21:55:32.829Z,101682.84
2023-03-02T21:58:28.283Z,101683.66
2023-03-02T22:01:24.369Z,101680.41
2023-03-02T22:09:39.902Z,101689.44
2023-03-02T22:15:24.681Z,101685.91
2023-03-02T22:21:42.829Z,101685.69
2023-03-02T22:24:35.004Z,101678.69
2023-03-02T22:33:59.405Z,101680.97
2023-03-02T22:37:14.966Z,101683.56
2023-03-02T22:40:49.137Z,101672.13
2023-03-02T22:46:42.443Z,101678.09
2023-03-02T22:49:33.815Z,101679.91
2023-03-02T22:52:42.389Z,101677.59
2023-03-02T23:02:35.621Z,101674.47
2023-03-02T23:05:33.680Z,101674.69
2023-03-02T23:14:36.262Z,101669.63
2023-03-02T23:17:24.899Z,101667.59
2023-03-02T23:23:38.087Z,101671.47
2023-03-02T23:26:18.482Z,101678.19
2023-03-02T23:29:08.277Z,101666.66
2023-03-02T23:31:54.520Z,101677.06
2023-03-02T23:34:37.421Z,101678.38
2023-03-02T23:37:45.310Z,101685.72
2023-03-02T23:43:27.869Z,101682.63
2023-03-02T23:46:18.426Z,101680.84
2023-03-02T23:48:51.864Z,101681.31
2023-03-02T23:51:28.932Z,101672.63
2023-03-02T23:53:58.834Z,101679.16
2023-03-02T23:56:33.994Z,101688.09
2023-03-02T23:59:09.559Z,101673.50
